Time;durP1;ratioP1;P1;durP2;ratioP2;P2;SDS_P1;SDS_P2;PMS_P1;PMS_P2;Temp;Humidity;BMP_temperature;BMP_pressure;BME280_temperature;BME280_humidity;BME280_pressure;Samples;Min_cycle;Max_cycle;Signal;HPM_P1;HPM_P2
2021/12/28 00:01:07;;;;;;;36.33;23.52;;;;;;;;;;5038523;28;20067;-77
2021/12/28 00:03:37;;;;;;;40.80;24.42;;;;;;;;;;5033534;28;20044;-77
2021/12/28 00:06:05;;;;;;;38.65;23.73;;;;;;;;;;5020087;28;20044;-77
2021/12/28 00:08:38;;;;;;;41.60;24.58;;;;;;;;;;5036464;28;20511;-77
2021/12/28 00:11:12;;;;;;;37.67;23.50;;;;;;;;;;5035003;28;20314;-77
2021/12/28 00:13:47;;;;;;;38.05;24.05;;;;;;;;;;5018082;28;20039;-77
2021/12/28 00:16:29;;;;;;;43.65;25.58;;;;;;;;;;5035395;28;20041;-77
2021/12/28 00:19:16;;;;;;;38.67;24.08;;;;;;;;;;5036141;28;20111;-77
2021/12/28 00:21:55;;;;;;;41.85;25.85;;;;;;;;;;5032819;28;20517;-77
2021/12/28 00:24:42;;;;;;;46.47;27.35;;;;;;;;;;5036719;28;20136;-77
2021/12/28 00:28:53;;;;;;;42.88;25.38;;;;;;;;;;5014904;28;20063;-77
2021/12/28 00:31:13;;;;;;;38.75;24.58;;;;;;;;;;4945923;29;20301;-77
2021/12/28 01:09:04;;;;;;;;;;;;;;;;;;;;;
2021/12/28 02:21:30;;;;;;;;;;;;;;;;;;;;;
2021/12/28 02:45:01;;;;;;;194.68;42.80;;;;;;;;;;4749737;30;20040;-78
2021/12/28 03:18:20;;;;;;;144.35;36.10;;;;;;;;;;4753889;30;20050;-78
2021/12/28 06:16:59;;;;;;;;;;;;;;;;;;;;;
2021/12/28 06:27:34;;;;;;;107.00;35.63;;;;;;;;;;4877765;29;20083;-77
2021/12/28 06:30:14;;;;;;;86.68;32.92;;;;;;;;;;4833340;29;20109;-78
2021/12/28 07:05:14;;;;;;;73.72;31.30;;;;;;;;;;5245673;23;20053;-78
2021/12/28 07:07:59;;;;;;;68.18;30.83;;;;;;;;;;4821444;29;20054;-77
2021/12/28 07:13:55;;;;;;;72.13;29.85;;;;;;;;;;4860216;29;19916;-77
2021/12/28 07:16:21;;;;;;;74.88;28.50;;;;;;;;;;4844043;29;20380;-77
2021/12/28 07:18:47;;;;;;;62.40;27.00;;;;;;;;;;4833907;29;20037;-77
2021/12/28 07:21:13;;;;;;;65.57;28.95;;;;;;;;;;4833131;29;20097;-78
2021/12/28 07:23:39;;;;;;;68.78;28.42;;;;;;;;;;4833523;29;20374;-78
2021/12/28 07:26:06;;;;;;;68.68;28.27;;;;;;;;;;4832065;29;20128;-78
2021/12/28 07:28:32;;;;;;;57.70;26.92;;;;;;;;;;4848380;29;20041;-78
2021/12/28 07:31:01;;;;;;;59.05;26.55;;;;;;;;;;4832693;29;20065;-78
2021/12/28 07:33:29;;;;;;;61.88;25.27;;;;;;;;;;4833527;29;20041;-79
2021/12/28 07:35:55;;;;;;;57.08;25.90;;;;;;;;;;4832966;29;20041;-78
2021/12/28 07:38:23;;;;;;;60.67;24.55;;;;;;;;;;4847856;29;20048;-78
2021/12/28 07:40:50;;;;;;;59.20;23.98;;;;;;;;;;4847973;29;20053;-79
2021/12/28 07:43:16;;;;;;;44.17;24.35;;;;;;;;;;4847949;29;20049;-78
2021/12/28 07:45:42;;;;;;;54.70;25.00;;;;;;;;;;4820493;29;20046;-77
2021/12/28 07:48:09;;;;;;;39.70;20.65;;;;;;;;;;4827671;29;20037;-78
2021/12/28 07:50:36;;;;;;;50.63;22.30;;;;;;;;;;4815603;29;20050;-77
2021/12/28 07:53:15;;;;;;;47.92;23.10;;;;;;;;;;4845408;29;20108;-79
2021/12/28 07:55:41;;;;;;;55.60;23.15;;;;;;;;;;4832902;29;20372;-78
2021/12/28 07:58:09;;;;;;;55.78;22.95;;;;;;;;;;4832476;29;20041;-77
2021/12/28 08:00:38;;;;;;;46.03;21.17;;;;;;;;;;4844638;29;20489;-78
2021/12/28 08:03:04;;;;;;;49.40;21.83;;;;;;;;;;4863358;29;20041;-78
2021/12/28 08:05:32;;;;;;;46.45;20.00;;;;;;;;;;4843965;29;20062;-79
2021/12/28 08:08:01;;;;;;;39.85;19.27;;;;;;;;;;4844473;29;20049;-79
2021/12/28 08:10:28;;;;;;;45.13;20.48;;;;;;;;;;4829149;29;20126;-78
2021/12/28 08:12:59;;;;;;;47.47;20.90;;;;;;;;;;4829138;29;20137;-78
2021/12/28 08:15:31;;;;;;;41.38;19.73;;;;;;;;;;4827786;29;20053;-82
2021/12/28 08:18:02;;;;;;;36.80;18.08;;;;;;;;;;4842860;29;20104;-78
2021/12/28 08:20:31;;;;;;;41.00;19.63;;;;;;;;;;4828733;29;20053;-82
2021/12/28 08:23:15;;;;;;;36.90;18.60;;;;;;;;;;4844342;29;20408;-78
2021/12/28 08:25:58;;;;;;;36.72;17.65;;;;;;;;;;4829581;29;20470;-78
2021/12/28 08:28:24;;;;;;;37.45;17.73;;;;;;;;;;4842062;29;20048;-78
2021/12/28 08:30:51;;;;;;;33.20;17.60;;;;;;;;;;4829417;29;20049;-80
2021/12/28 08:33:31;;;;;;;35.28;17.70;;;;;;;;;;4838453;29;20042;-79
2021/12/28 08:35:57;;;;;;;34.40;16.60;;;;;;;;;;4825921;29;20084;-80
2021/12/28 08:38:24;;;;;;;39.08;17.92;;;;;;;;;;4840304;29;20061;-79
2021/12/28 08:40:50;;;;;;;35.85;17.15;;;;;;;;;;4843561;29;20060;-78
2021/12/28 08:43:17;;;;;;;38.08;16.95;;;;;;;;;;4826761;29;20450;-77
2021/12/28 08:45:43;;;;;;;30.58;15.88;;;;;;;;;;4843495;29;20039;-79
2021/12/28 08:48:11;;;;;;;36.78;17.30;;;;;;;;;;4827979;29;20072;-79
2021/12/28 08:50:37;;;;;;;36.67;17.13;;;;;;;;;;4845231;29;20056;-79
2021/12/28 08:53:03;;;;;;;37.92;17.02;;;;;;;;;;4843208;29;20042;-79
2021/12/28 08:55:29;;;;;;;32.83;16.30;;;;;;;;;;4828785;29;20050;-80
2021/12/28 08:57:55;;;;;;;32.25;14.60;;;;;;;;;;4842961;29;20042;-75
2021/12/28 09:00:23;;;;;;;29.23;15.23;;;;;;;;;;4844542;29;20041;-78
2021/12/28 09:02:50;;;;;;;33.47;15.13;;;;;;;;;;4843489;29;20037;-80
2021/12/28 09:05:16;;;;;;;35.08;14.95;;;;;;;;;;4841880;29;20467;-79
2021/12/28 09:07:42;;;;;;;27.95;15.05;;;;;;;;;;4843741;29;20053;-80
2021/12/28 09:10:08;;;;;;;30.35;14.98;;;;;;;;;;4813187;29;20049;-78
2021/12/28 09:12:35;;;;;;;28.13;14.40;;;;;;;;;;4826412;29;20038;-79
2021/12/28 09:15:01;;;;;;;36.22;14.50;;;;;;;;;;4841595;29;20052;-80
2021/12/28 09:17:27;;;;;;;27.90;14.10;;;;;;;;;;4842930;29;20061;-78
2021/12/28 09:19:53;;;;;;;34.22;15.95;;;;;;;;;;4826376;29;20038;-78
2021/12/28 09:22:19;;;;;;;32.58;14.55;;;;;;;;;;4843869;29;20049;-80
2021/12/28 09:24:45;;;;;;;29.38;15.30;;;;;;;;;;4835663;29;20472;-80
2021/12/28 09:27:11;;;;;;;28.52;14.55;;;;;;;;;;4843369;29;20052;-78
2021/12/28 09:29:42;;;;;;;32.47;15.05;;;;;;;;;;4843186;29;20038;-77
2021/12/28 09:32:08;;;;;;;32.13;14.43;;;;;;;;;;4827331;29;20038;-77
2021/12/28 09:34:35;;;;;;;31.45;15.18;;;;;;;;;;4825007;29;20137;-78
2021/12/28 09:37:01;;;;;;;25.38;14.55;;;;;;;;;;4841251;29;20046;-79
2021/12/28 09:39:28;;;;;;;33.63;15.15;;;;;;;;;;4843173;29;20109;-79
2021/12/28 09:41:56;;;;;;;29.40;15.38;;;;;;;;;;4828880;29;20400;-78
2021/12/28 09:44:22;;;;;;;26.13;15.35;;;;;;;;;;4827933;29;20037;-78
2021/12/28 09:46:49;;;;;;;25.85;15.13;;;;;;;;;;4812680;29;20041;-78
2021/12/28 09:49:15;;;;;;;27.52;14.40;;;;;;;;;;4826138;29;20060;-77
2021/12/28 09:51:41;;;;;;;32.05;16.27;;;;;;;;;;4823427;29;20060;-77
2021/12/28 09:54:07;;;;;;;32.60;16.40;;;;;;;;;;4859494;29;20045;-79
2021/12/28 09:56:33;;;;;;;28.73;15.35;;;;;;;;;;4829557;29;20049;-79
2021/12/28 09:59:00;;;;;;;27.05;15.68;;;;;;;;;;4851462;29;20045;-79
2021/12/28 10:01:26;;;;;;;31.67;16.42;;;;;;;;;;4824346;29;20113;-78
2021/12/28 10:03:55;;;;;;;27.08;14.63;;;;;;;;;;4812929;29;20115;-80
2021/12/28 10:06:27;;;;;;;26.02;16.10;;;;;;;;;;4825858;29;20128;-80
2021/12/28 10:09:20;;;;;;;30.15;15.38;;;;;;;;;;4809694;29;20061;-79
2021/12/28 10:11:49;;;;;;;25.00;14.68;;;;;;;;;;4808326;29;20129;-79
2021/12/28 10:14:17;;;;;;;24.45;15.02;;;;;;;;;;4807751;29;20042;-77
2021/12/28 10:16:51;;;;;;;26.25;15.35;;;;;;;;;;4793441;29;20058;-80
2021/12/28 10:19:35;;;;;;;27.98;14.70;;;;;;;;;;4810891;29;20052;-79
2021/12/28 10:22:20;;;;;;;28.15;15.02;;;;;;;;;;4811573;29;20050;-79
2021/12/28 10:24:47;;;;;;;30.80;15.00;;;;;;;;;;4841941;29;20053;-79
2021/12/28 10:27:21;;;;;;;31.65;15.75;;;;;;;;;;4811353;29;20057;-79
2021/12/28 10:29:47;;;;;;;36.80;16.40;;;;;;;;;;4812134;29;20542;-78
2021/12/28 10:32:28;;;;;;;33.40;16.30;;;;;;;;;;4806911;29;20054;-77
2021/12/28 10:35:24;;;;;;;27.42;15.23;;;;;;;;;;4799600;29;20048;-80
2021/12/28 10:37:53;;;;;;;25.25;14.65;;;;;;;;;;4807140;29;20062;-83
2021/12/28 10:40:29;;;;;;;33.08;15.88;;;;;;;;;;4829459;29;20052;-81
2021/12/28 10:43:03;;;;;;;32.50;16.35;;;;;;;;;;4815067;29;20046;-80
2021/12/28 10:45:38;;;;;;;32.08;16.38;;;;;;;;;;4814683;29;20114;-80
2021/12/28 10:48:23;;;;;;;33.53;15.90;;;;;;;;;;4825349;29;20057;-80
2021/12/28 10:51:01;;;;;;;27.35;16.23;;;;;;;;;;4812434;29;20042;-80
2021/12/28 10:53:37;;;;;;;30.52;16.30;;;;;;;;;;4842406;29;20046;-78
2021/12/28 10:56:05;;;;;;;35.17;16.85;;;;;;;;;;4826371;29;20045;-78
2021/12/28 10:58:35;;;;;;;30.60;16.48;;;;;;;;;;4826737;29;20042;-80
2021/12/28 11:01:04;;;;;;;33.50;16.05;;;;;;;;;;4842879;29;20363;-79
2021/12/28 11:03:34;;;;;;;28.45;15.52;;;;;;;;;;4825855;29;20049;-79
2021/12/28 11:06:01;;;;;;;25.98;15.73;;;;;;;;;;4826235;29;20416;-78
2021/12/28 11:08:28;;;;;;;30.83;16.83;;;;;;;;;;4842532;29;20041;-79
2021/12/28 11:10:56;;;;;;;32.97;16.13;;;;;;;;;;4826348;29;20073;-80
2021/12/28 11:13:24;;;;;;;32.33;15.88;;;;;;;;;;4843017;29;20050;-78
2021/12/28 11:15:50;;;;;;;22.05;14.35;;;;;;;;;;4826332;29;20499;-77
2021/12/28 11:18:36;;;;;;;22.50;14.48;;;;;;;;;;4842039;29;20045;-78
2021/12/28 11:21:14;;;;;;;21.88;14.15;;;;;;;;;;4840524;29;20057;-79
2021/12/28 11:23:41;;;;;;;22.48;14.18;;;;;;;;;;4842539;29;20072;-77
2021/12/28 11:26:10;;;;;;;25.25;13.48;;;;;;;;;;4842259;29;20467;-79
2021/12/28 11:28:37;;;;;;;25.08;14.00;;;;;;;;;;4843063;29;20050;-81
2021/12/28 11:31:14;;;;;;;19.80;13.45;;;;;;;;;;4842027;29;20054;-79
2021/12/28 11:34:00;;;;;;;21.27;13.70;;;;;;;;;;4840859;29;20151;-79
2021/12/28 11:36:31;;;;;;;21.27;12.68;;;;;;;;;;4830636;29;20466;-75
2021/12/28 11:38:58;;;;;;;18.17;12.60;;;;;;;;;;4838742;29;20085;-76
2021/12/28 11:41:25;;;;;;;16.75;12.18;;;;;;;;;;4842072;29;20049;-76
2021/12/28 11:43:52;;;;;;;18.55;12.15;;;;;;;;;;4840321;29;20056;-74
2021/12/28 11:46:18;;;;;;;16.00;11.63;;;;;;;;;;4842573;29;20053;-72
2021/12/28 11:48:45;;;;;;;18.63;12.27;;;;;;;;;;4839237;29;20136;-75
2021/12/28 11:51:12;;;;;;;14.05;10.77;;;;;;;;;;4841961;29;20050;-71
2021/12/28 11:53:41;;;;;;;16.55;10.93;;;;;;;;;;4842484;29;20467;-72
2021/12/28 11:56:08;;;;;;;14.02;10.98;;;;;;;;;;4844183;29;20136;-71
2021/12/28 11:58:54;;;;;;;15.48;9.95;;;;;;;;;;4840194;29;20050;-75
2021/12/28 12:01:40;;;;;;;16.30;10.70;;;;;;;;;;4823410;29;20129;-71
2021/12/28 12:04:25;;;;;;;16.90;10.55;;;;;;;;;;4822665;29;20450;-72
2021/12/28 12:07:14;;;;;;;11.75;9.73;;;;;;;;;;4814027;29;20057;-73
2021/12/28 12:09:49;;;;;;;13.90;9.57;;;;;;;;;;4828950;29;20049;-76
2021/12/28 12:12:16;;;;;;;12.35;9.43;;;;;;;;;;4845085;29;20096;-72
2021/12/28 12:17:39;;;;;;;10.93;8.57;;;;;;;;;;4844685;29;20091;-76
2021/12/28 12:20:05;;;;;;;10.60;8.40;;;;;;;;;;4844818;29;20556;-79
2021/12/28 12:22:31;;;;;;;8.57;7.65;;;;;;;;;;4845523;29;20069;-77
2021/12/28 12:24:59;;;;;;;10.75;8.13;;;;;;;;;;4812537;29;20038;-81
2021/12/28 12:27:43;;;;;;;10.23;7.57;;;;;;;;;;4828475;29;20088;-76
2021/12/28 12:30:19;;;;;;;9.30;7.82;;;;;;;;;;4826216;29;20041;-79
2021/12/28 12:32:57;;;;;;;12.10;8.30;;;;;;;;;;4824398;29;20354;-77
2021/12/28 12:35:35;;;;;;;12.27;8.65;;;;;;;;;;4827597;29;20041;-77
2021/12/28 12:38:03;;;;;;;10.38;7.78;;;;;;;;;;4826916;29;20041;-79
2021/12/28 12:40:48;;;;;;;12.43;8.68;;;;;;;;;;4828555;29;20046;-78
2021/12/28 12:43:15;;;;;;;10.18;8.00;;;;;;;;;;4828187;29;20389;-79
2021/12/28 12:45:57;;;;;;;12.85;8.98;;;;;;;;;;4812667;29;20079;-78
2021/12/28 12:48:35;;;;;;;11.98;9.20;;;;;;;;;;4827480;29;20145;-78
2021/12/28 12:51:23;;;;;;;12.35;8.88;;;;;;;;;;4827453;29;20038;-77
2021/12/28 12:53:58;;;;;;;10.18;8.75;;;;;;;;;;4828244;29;20427;-79
2021/12/28 12:56:30;;;;;;;14.05;9.38;;;;;;;;;;4823872;29;20046;-75
2021/12/28 12:59:07;;;;;;;11.82;8.77;;;;;;;;;;4827903;29;20408;-75
2021/12/28 13:01:53;;;;;;;14.27;9.63;;;;;;;;;;4827642;29;20366;-77
2021/12/28 13:04:28;;;;;;;11.27;8.52;;;;;;;;;;4827188;29;20113;-73
2021/12/28 13:07:06;;;;;;;12.57;8.90;;;;;;;;;;4829003;29;20484;-77
2021/12/28 13:09:34;;;;;;;11.35;8.55;;;;;;;;;;4825091;29;20061;-75
2021/12/28 13:12:01;;;;;;;10.00;8.48;;;;;;;;;;4828727;29;20048;-76
2021/12/28 13:14:28;;;;;;;12.82;8.73;;;;;;;;;;4843922;29;20050;-73
2021/12/28 13:16:58;;;;;;;9.68;7.80;;;;;;;;;;4825888;29;20048;-75
2021/12/28 13:19:24;;;;;;;12.15;8.32;;;;;;;;;;4831995;29;20052;-78
2021/12/28 13:21:58;;;;;;;10.85;8.68;;;;;;;;;;4828481;29;20049;-75
2021/12/28 13:24:25;;;;;;;10.15;7.95;;;;;;;;;;4828440;29;20053;-76
2021/12/28 13:26:53;;;;;;;9.43;8.18;;;;;;;;;;4826621;29;20126;-83
2021/12/28 13:29:39;;;;;;;9.07;7.65;;;;;;;;;;4842968;29;20411;-76
2021/12/28 13:32:16;;;;;;;13.20;9.00;;;;;;;;;;4810284;29;20039;-75
2021/12/28 13:34:59;;;;;;;8.27;7.05;;;;;;;;;;4835797;29;20552;-74
2021/12/28 13:37:29;;;;;;;12.23;8.48;;;;;;;;;;4827180;29;20050;-75
2021/12/28 13:40:00;;;;;;;10.82;8.95;;;;;;;;;;4828283;29;20041;-73
2021/12/28 13:42:26;;;;;;;12.32;9.23;;;;;;;;;;4827781;29;20120;-72
2021/12/28 13:44:52;;;;;;;10.40;8.82;;;;;;;;;;4826616;29;20056;-73
2021/12/28 13:47:19;;;;;;;13.70;9.65;;;;;;;;;;4827352;29;20364;-76
2021/12/28 13:50:03;;;;;;;13.43;9.25;;;;;;;;;;4842747;29;20466;-75
2021/12/28 13:52:39;;;;;;;10.80;8.65;;;;;;;;;;4828525;29;20049;-77
2021/12/28 13:55:05;;;;;;;13.57;9.07;;;;;;;;;;4827502;29;20075;-74
2021/12/28 13:57:33;;;;;;;10.68;8.82;;;;;;;;;;4841525;29;20375;-74
2021/12/28 13:59:59;;;;;;;11.88;9.65;;;;;;;;;;4826607;29;20043;-76
2021/12/28 14:02:25;;;;;;;12.52;9.95;;;;;;;;;;4827753;29;20451;-76
2021/12/28 14:04:51;;;;;;;12.55;9.77;;;;;;;;;;4827191;29;20060;-74
2021/12/28 14:07:17;;;;;;;14.02;11.10;;;;;;;;;;4827450;29;20459;-73
2021/12/28 14:09:43;;;;;;;16.92;11.70;;;;;;;;;;4843161;29;20120;-73
2021/12/28 14:12:10;;;;;;;14.75;11.35;;;;;;;;;;4821875;29;20317;-75
2021/12/28 14:14:38;;;;;;;14.95;11.68;;;;;;;;;;4842760;29;20480;-75
2021/12/28 14:17:11;;;;;;;12.38;9.90;;;;;;;;;;4844062;29;20079;-75
2021/12/28 14:19:38;;;;;;;8.38;6.60;;;;;;;;;;4812085;29;20339;-76
2021/12/28 14:22:11;;;;;;;8.30;6.07;;;;;;;;;;4843556;29;20061;-78
2021/12/28 14:24:38;;;;;;;9.00;5.93;;;;;;;;;;4824344;29;20045;-78
2021/12/28 14:27:04;;;;;;;7.00;5.60;;;;;;;;;;4828500;29;20464;-79
2021/12/28 14:29:33;;;;;;;7.75;5.82;;;;;;;;;;4818313;29;20057;-78
2021/12/28 14:32:01;;;;;;;9.35;6.80;;;;;;;;;;4812595;29;20069;-79
2021/12/28 14:34:34;;;;;;;6.88;4.60;;;;;;;;;;4827633;29;20085;-78
2021/12/28 14:40:27;;;;;;;8.05;4.43;;;;;;;;;;4808329;29;20047;-77
2021/12/28 14:43:06;;;;;;;8.25;5.00;;;;;;;;;;4828302;29;20491;-78
2021/12/28 14:46:19;;;;;;;6.43;4.57;;;;;;;;;;4811411;29;20120;-79
2021/12/28 14:49:16;;;;;;;8.20;4.20;;;;;;;;;;4772461;29;20043;-78
2021/12/28 14:51:42;;;;;;;7.63;4.10;;;;;;;;;;4770598;29;20043;-79
2021/12/28 15:26:43;;;;;;;11.15;3.38;;;;;;;;;;4793659;29;20057;-79
2021/12/28 15:29:19;;;;;;;8.30;3.22;;;;;;;;;;4797476;29;20050;-78
2021/12/28 15:32:14;;;;;;;11.57;3.83;;;;;;;;;;4811437;29;20463;-78
2021/12/28 15:34:43;;;;;;;9.75;4.40;;;;;;;;;;4821329;29;20050;-79
2021/12/28 15:37:12;;;;;;;9.18;4.20;;;;;;;;;;4810938;29;20053;-78
2021/12/28 15:39:38;;;;;;;7.20;3.55;;;;;;;;;;4800466;29;20078;-78
2021/12/28 15:42:32;;;;;;;10.23;4.40;;;;;;;;;;4809671;29;20313;-78
2021/12/28 15:58:52;;;;;;;12.65;6.50;;;;;;;;;;4754087;29;20039;-78
2021/12/28 16:01:56;;;;;;;;;;;;;;;;;;;;;
2021/12/28 16:04:36;;;;;;;13.55;6.88;;;;;;;;;;4736412;30;20040;-78
2021/12/28 16:18:04;;;;;;;12.55;5.68;;;;;;;;;;4734722;30;20048;-77
2021/12/28 16:21:54;;;;;;;15.63;7.53;;;;;;;;;;4708225;29;20135;-77
2021/12/28 16:24:19;;;;;;;17.38;6.68;;;;;;;;;;4767850;30;20122;-78
2021/12/28 16:27:22;;;;;;;15.30;6.05;;;;;;;;;;4742562;30;20073;-78
2021/12/28 16:53:58;;;;;;;14.52;5.82;;;;;;;;;;4832645;29;20025;-76
2021/12/28 16:56:25;;;;;;;16.35;4.80;;;;;;;;;;4827664;29;20038;-80
2021/12/28 16:59:03;;;;;;;17.80;5.10;;;;;;;;;;4843905;29;20042;-81
2021/12/28 17:01:30;;;;;;;12.88;5.20;;;;;;;;;;4812968;29;20046;-78
2021/12/28 17:03:57;;;;;;;15.45;5.57;;;;;;;;;;4813338;29;20037;-78
2021/12/28 17:06:23;;;;;;;14.05;4.78;;;;;;;;;;4812630;29;20042;-78
2021/12/28 17:08:56;;;;;;;13.30;5.35;;;;;;;;;;4844050;29;20101;-77
2021/12/28 17:11:34;;;;;;;13.70;6.03;;;;;;;;;;4824085;29;20054;-77
2021/12/28 17:14:00;;;;;;;14.13;6.72;;;;;;;;;;4827333;29;20045;-79
2021/12/28 17:16:26;;;;;;;21.13;13.40;;;;;;;;;;4825824;29;20053;-78
2021/12/28 17:18:59;;;;;;;11.98;7.10;;;;;;;;;;4812413;29;20118;-77
2021/12/28 17:21:32;;;;;;;15.15;6.63;;;;;;;;;;4827747;29;20045;-79
2021/12/28 17:23:59;;;;;;;16.60;6.22;;;;;;;;;;4828184;29;20439;-78
2021/12/28 17:26:28;;;;;;;20.42;9.68;;;;;;;;;;4813174;29;20117;-80
2021/12/28 17:29:25;;;;;;;;;;;;;;;;;;;;;
2021/12/28 17:42:16;;;;;;;16.40;7.53;;;;;;;;;;4825028;29;20038;-78
2021/12/28 17:44:42;;;;;;;23.05;13.57;;;;;;;;;;4842430;29;20046;-77
2021/12/28 17:47:10;;;;;;;41.97;24.02;;;;;;;;;;4827201;29;20046;-79
2021/12/28 17:49:37;;;;;;;25.92;17.52;;;;;;;;;;4827239;29;20030;-77
2021/12/28 17:52:03;;;;;;;18.65;10.05;;;;;;;;;;4826685;29;20110;-78
2021/12/28 17:54:29;;;;;;;20.98;10.68;;;;;;;;;;4812686;29;20443;-78
2021/12/28 17:56:56;;;;;;;20.45;9.45;;;;;;;;;;4843026;29;20052;-80
2021/12/28 17:59:22;;;;;;;21.23;10.88;;;;;;;;;;4827427;29;20054;-78
2021/12/28 18:02:03;;;;;;;17.73;8.40;;;;;;;;;;4827402;29;20367;-77
2021/12/28 18:04:29;;;;;;;23.88;12.43;;;;;;;;;;4811999;29;20038;-76
2021/12/28 18:06:56;;;;;;;24.52;10.60;;;;;;;;;;4811350;29;20045;-76
2021/12/28 18:09:22;;;;;;;17.60;9.88;;;;;;;;;;4813146;29;20054;-77
2021/12/28 18:11:48;;;;;;;18.70;8.85;;;;;;;;;;4827160;29;20049;-77
2021/12/28 18:14:14;;;;;;;19.50;8.60;;;;;;;;;;4843843;29;20125;-77
2021/12/28 18:16:40;;;;;;;15.48;7.80;;;;;;;;;;4842678;29;20050;-77
2021/12/28 18:19:06;;;;;;;19.15;10.57;;;;;;;;;;4812251;29;20447;-77
2021/12/28 18:21:32;;;;;;;16.75;8.57;;;;;;;;;;4826139;29;20097;-78
2021/12/28 18:25:01;;;;;;;;;;;;;;;;;;;;;
2021/12/28 18:27:26;;;;;;;18.85;8.50;;;;;;;;;;4772427;30;20080;-78
2021/12/28 18:30:15;;;;;;;16.88;10.15;;;;;;;;;;4824697;29;20084;-78
2021/12/28 18:32:51;;;;;;;19.25;10.90;;;;;;;;;;4842347;29;20050;-78
2021/12/28 18:35:29;;;;;;;28.35;16.10;;;;;;;;;;4841702;29;20102;-78
2021/12/28 18:37:59;;;;;;;14.05;7.90;;;;;;;;;;4824798;29;20049;-78
2021/12/28 18:40:25;;;;;;;13.25;6.70;;;;;;;;;;4825444;29;20037;-78
2021/12/28 18:42:54;;;;;;;12.48;6.80;;;;;;;;;;4812218;29;20048;-78
2021/12/28 18:45:36;;;;;;;14.77;7.90;;;;;;;;;;4816081;29;20074;-78
2021/12/28 18:48:03;;;;;;;11.55;6.70;;;;;;;;;;4808856;29;20563;-78
2021/12/28 18:50:44;;;;;;;16.80;7.82;;;;;;;;;;4794302;29;20034;-77
2021/12/28 18:53:13;;;;;;;13.23;7.22;;;;;;;;;;4803372;29;20397;-77
2021/12/28 18:55:47;;;;;;;12.20;6.63;;;;;;;;;;4833683;29;20034;-80
2021/12/28 18:58:14;;;;;;;13.32;6.05;;;;;;;;;;4826377;29;20046;-78
2021/12/28 19:00:40;;;;;;;12.88;6.18;;;;;;;;;;4815281;29;20038;-78
2021/12/28 19:03:06;;;;;;;14.48;7.53;;;;;;;;;;4814713;29;20038;-76
2021/12/28 19:05:33;;;;;;;18.63;9.02;;;;;;;;;;4814743;29;20523;-77
2021/12/28 19:07:59;;;;;;;21.00;8.77;;;;;;;;;;4814985;29;20034;-77
2021/12/28 19:10:30;;;;;;;19.52;8.40;;;;;;;;;;4829377;29;20060;-78
2021/12/28 19:12:59;;;;;;;25.15;15.35;;;;;;;;;;4829679;29;20049;-77
2021/12/28 19:15:25;;;;;;;21.80;11.45;;;;;;;;;;4829761;29;20086;-77
2021/12/28 19:17:53;;;;;;;20.70;12.13;;;;;;;;;;4829849;29;20361;-76
2021/12/28 19:20:22;;;;;;;21.90;11.98;;;;;;;;;;4829862;29;20109;-78
2021/12/28 19:22:48;;;;;;;25.73;13.40;;;;;;;;;;4829903;29;20050;-77
2021/12/28 19:25:41;;;;;;;14.90;9.68;;;;;;;;;;4829848;29;20416;-77
2021/12/28 19:28:08;;;;;;;17.65;9.43;;;;;;;;;;4811639;29;20104;-77
2021/12/28 19:30:51;;;;;;;20.85;8.02;;;;;;;;;;4816184;29;20348;-77
2021/12/28 19:33:34;;;;;;;19.95;8.50;;;;;;;;;;4824667;29;20041;-78
2021/12/28 19:36:01;;;;;;;16.13;8.45;;;;;;;;;;4811630;29;20057;-77
2021/12/28 19:38:28;;;;;;;19.15;9.05;;;;;;;;;;4829890;29;20050;-78
2021/12/28 19:40:57;;;;;;;23.92;9.85;;;;;;;;;;4846533;29;20053;-77
2021/12/28 19:43:23;;;;;;;21.30;8.85;;;;;;;;;;4814554;29;20478;-79
2021/12/28 19:45:52;;;;;;;24.80;11.27;;;;;;;;;;4829116;29;20520;-78
2021/12/28 19:48:32;;;;;;;25.77;8.23;;;;;;;;;;4826740;29;20046;-77
2021/12/28 19:50:59;;;;;;;20.27;7.95;;;;;;;;;;4840556;29;20038;-78
2021/12/28 19:53:26;;;;;;;27.10;10.15;;;;;;;;;;4829503;29;20048;-78
2021/12/28 20:33:21;;;;;;;31.67;14.32;;;;;;;;;;4612281;31;20118;-77
2021/12/28 20:40:04;;;;;;;;;;;;;;;;;;;;;
2021/12/28 20:42:54;;;;;;;18.52;9.68;;;;;;;;;;4682750;30;20380;-76
2021/12/28 20:45:21;;;;;;;25.23;9.70;;;;;;;;;;4706105;30;20166;-76
2021/12/28 20:47:54;;;;;;;20.77;8.48;;;;;;;;;;4809549;29;20372;-76
2021/12/28 20:50:21;;;;;;;20.55;8.52;;;;;;;;;;4844658;29;20120;-77
2021/12/28 20:52:47;;;;;;;22.10;10.63;;;;;;;;;;4843008;29;20042;-76
2021/12/28 20:55:18;;;;;;;23.65;11.20;;;;;;;;;;4813519;29;20050;-76
2021/12/28 21:00:59;;;;;;;25.77;12.90;;;;;;;;;;4819970;29;20197;-78
2021/12/28 21:03:25;;;;;;;26.15;11.25;;;;;;;;;;4827465;29;20049;-76
2021/12/28 21:05:52;;;;;;;13.68;7.63;;;;;;;;;;4828668;29;20327;-79
2021/12/28 21:08:20;;;;;;;18.95;9.70;;;;;;;;;;4813292;29;20042;-77
2021/12/28 21:10:48;;;;;;;22.55;11.57;;;;;;;;;;4828132;29;20092;-77
2021/12/28 21:13:20;;;;;;;37.95;14.45;;;;;;;;;;4813317;29;20045;-78
2021/12/28 21:15:47;;;;;;;20.48;10.88;;;;;;;;;;4813497;29;20068;-77
2021/12/28 21:18:14;;;;;;;32.92;13.55;;;;;;;;;;4842759;29;20054;-77
2021/12/28 21:20:40;;;;;;;32.22;17.05;;;;;;;;;;4827308;29;20049;-79
2021/12/28 21:23:08;;;;;;;22.77;12.63;;;;;;;;;;4826891;29;20052;-77
2021/12/28 21:25:35;;;;;;;17.15;11.77;;;;;;;;;;4828386;29;20454;-79
2021/12/28 21:28:02;;;;;;;20.63;12.00;;;;;;;;;;4843448;29;20088;-80
2021/12/28 21:30:29;;;;;;;19.63;12.30;;;;;;;;;;4827819;29;20060;-78
2021/12/28 21:32:56;;;;;;;28.40;14.70;;;;;;;;;;4828271;29;20332;-79
2021/12/28 21:35:24;;;;;;;25.60;14.15;;;;;;;;;;4813072;29;20382;-77
2021/12/28 21:37:51;;;;;;;26.52;14.60;;;;;;;;;;4813094;29;20056;-77
2021/12/28 21:40:18;;;;;;;30.02;14.80;;;;;;;;;;4827650;29;20097;-79
2021/12/28 21:42:45;;;;;;;38.85;19.10;;;;;;;;;;4843597;29;20049;-80
2021/12/28 21:45:16;;;;;;;37.70;16.25;;;;;;;;;;4843669;29;20099;-77
2021/12/28 21:47:45;;;;;;;18.30;12.07;;;;;;;;;;4842830;29;20041;-77
2021/12/28 21:50:12;;;;;;;25.38;13.57;;;;;;;;;;4828241;29;20049;-78
2021/12/28 21:52:42;;;;;;;28.05;13.68;;;;;;;;;;4828285;29;20037;-78
2021/12/28 21:55:09;;;;;;;21.58;12.38;;;;;;;;;;4828110;29;20046;-78
2021/12/28 21:57:36;;;;;;;36.42;14.82;;;;;;;;;;4812593;29;20061;-78
2021/12/28 22:00:08;;;;;;;37.15;13.45;;;;;;;;;;4811882;29;20046;-79
2021/12/28 22:02:34;;;;;;;18.52;10.05;;;;;;;;;;4827361;29;20037;-78
2021/12/28 22:05:00;;;;;;;30.67;12.13;;;;;;;;;;4872461;29;20071;-79
2021/12/28 22:07:30;;;;;;;30.13;10.57;;;;;;;;;;4860155;29;20048;-81
2021/12/28 22:09:56;;;;;;;20.75;10.48;;;;;;;;;;4831091;29;20034;-78
2021/12/28 22:12:25;;;;;;;24.80;11.10;;;;;;;;;;4844340;29;20117;-78
2021/12/28 22:15:23;;;;;;;24.98;10.85;;;;;;;;;;4844669;29;20040;-79
2021/12/28 22:18:08;;;;;;;13.95;9.50;;;;;;;;;;4833032;29;20092;-77
2021/12/28 22:24:24;;;;;;;21.23;11.05;;;;;;;;;;4786771;30;20145;-79
2021/12/28 22:27:28;;;;;;;16.13;9.38;;;;;;;;;;4787250;29;20059;-79
2021/12/28 22:30:31;;;;;;;13.73;8.90;;;;;;;;;;4750664;30;20112;-80
2021/12/28 22:33:10;;;;;;;13.98;9.00;;;;;;;;;;4757556;30;20491;-78
2021/12/28 22:35:56;;;;;;;14.80;9.00;;;;;;;;;;4807295;29;20047;-80
2021/12/28 22:38:47;;;;;;;14.25;9.18;;;;;;;;;;4807701;29;20486;-78
2021/12/28 22:41:36;;;;;;;21.40;10.30;;;;;;;;;;4840622;29;20041;-78
2021/12/28 22:44:25;;;;;;;22.05;10.02;;;;;;;;;;4846275;29;20055;-81
2021/12/28 22:47:13;;;;;;;32.75;10.52;;;;;;;;;;4844656;29;20060;-79
2021/12/28 22:49:42;;;;;;;18.98;9.15;;;;;;;;;;4845198;29;20128;-80
2021/12/28 22:52:14;;;;;;;20.80;8.95;;;;;;;;;;4845550;29;20033;-79
2021/12/28 22:55:02;;;;;;;;;;;;;;;;;;;;;
2021/12/28 22:58:13;;;;;;;34.40;10.05;;;;;;;;;;4861358;29;20580;-80
2021/12/28 23:00:53;;;;;;;17.45;8.40;;;;;;;;;;4844848;29;20049;-79
2021/12/28 23:04:02;;;;;;;24.85;9.32;;;;;;;;;;4860612;29;20040;-79
2021/12/28 23:06:40;;;;;;;24.92;8.77;;;;;;;;;;4844614;29;20068;-81
2021/12/28 23:09:25;;;;;;;17.33;9.13;;;;;;;;;;4844637;29;20095;-78
2021/12/28 23:15:34;;;;;;;25.15;8.07;;;;;;;;;;4786855;29;20049;-79
2021/12/28 23:18:27;;;;;;;16.13;7.28;;;;;;;;;;4860427;29;20064;-78
2021/12/28 23:24:21;;;;;;;24.30;9.68;;;;;;;;;;4860405;29;20377;-79
2021/12/28 23:34:02;;;;;;;;;;;;;;;;;;;;;
2021/12/28 23:41:05;;;;;;;23.75;11.13;;;;;;;;;;4732749;30;20152;-79
2021/12/28 23:54:49;;;;;;;;;;;;;;;;;;;;;
